Time;durP1;ratioP1;P1;durP2;ratioP2;P2;SDS_P1;SDS_P2;PMS_P1;PMS_P2;Temp;Humidity;BMP_temperature;BMP_pressure;BME280_temperature;BME280_humidity;BME280_pressure;Samples;Min_cycle;Max_cycle;Signal;HPM_P1;HPM_P2
2022/05/21 00:01:59;;;;;;;10.18;5.68;;;11.30;94.30;;;;;;4995965;28;20045;-87
2022/05/21 00:04:28;;;;;;;13.30;6.85;;;11.30;94.40;;;;;;5011680;28;20084;-86
2022/05/21 00:06:53;;;;;;;13.43;7.78;;;11.40;94.30;;;;;;4992981;28;20122;-87
2022/05/21 00:09:19;;;;;;;15.13;9.05;;;11.30;94.40;;;;;;4993783;28;20054;-86
2022/05/21 00:11:47;;;;;;;16.35;10.45;;;11.30;94.50;;;;;;4991843;28;20042;-87
2022/05/21 00:14:17;;;;;;;19.88;10.85;;;11.40;94.80;;;;;;4995478;28;20068;-87
2022/05/21 00:16:43;;;;;;;18.52;11.40;;;11.30;95.00;;;;;;5012738;28;20030;-87
2022/05/21 00:19:11;;;;;;;12.77;9.00;;;11.30;95.20;;;;;;4985708;28;20026;-87
2022/05/21 00:21:39;;;;;;;18.45;9.52;;;11.30;95.00;;;;;;4983652;28;20033;-87
2022/05/21 00:24:05;;;;;;;14.43;8.77;;;11.30;94.90;;;;;;5008695;28;20499;-87
2022/05/21 00:26:33;;;;;;;10.93;7.97;;;11.30;94.50;;;;;;5010195;28;20168;-87
2022/05/21 00:28:58;;;;;;;14.75;7.78;;;11.30;94.20;;;;;;4993460;28;20030;-86
2022/05/21 00:31:26;;;;;;;12.75;8.40;;;11.30;93.80;;;;;;4993772;28;20038;-87
2022/05/21 00:33:53;;;;;;;16.25;8.77;;;11.40;94.20;;;;;;4995541;28;20451;-87
2022/05/21 00:36:24;;;;;;;12.20;6.60;;;11.30;94.10;;;;;;5002407;28;20100;-86
2022/05/21 00:38:54;;;;;;;12.27;7.07;;;11.30;93.70;;;;;;4995913;28;20029;-87
2022/05/21 00:41:20;;;;;;;14.20;7.72;;;11.30;93.70;;;;;;4994205;28;20548;-87
2022/05/21 00:43:47;;;;;;;9.32;6.85;;;11.30;93.60;;;;;;4991011;28;20037;-88
2022/05/21 00:46:42;;;;;;;15.07;7.40;;;11.20;93.30;;;;;;5011478;28;20053;-87
2022/05/21 00:49:16;;;;;;;9.05;6.15;;;11.20;93.50;;;;;;4992763;28;20413;-86
2022/05/21 00:51:45;;;;;;;10.80;6.10;;;11.20;93.30;;;;;;4982522;28;20125;-87
2022/05/21 00:54:13;;;;;;;13.93;6.53;;;11.10;93.20;;;;;;5005138;28;20060;-87
2022/05/21 00:57:14;;;;;;;12.68;6.63;;;11.10;93.10;;;;;;5005745;28;20034;-87
2022/05/21 00:59:51;;;;;;;;;;;11.10;93.40;;;;;;4995648;28;20109;-87
2022/05/21 01:02:41;;;;;;;8.48;5.65;;;11.10;93.30;;;;;;4994250;28;19916;-88
2022/05/21 01:05:11;;;;;;;12.05;5.90;;;11.10;93.20;;;;;;4993053;28;20059;-87
2022/05/21 01:07:38;;;;;;;11.80;6.28;;;11.10;92.90;;;;;;4994413;28;20587;-87
2022/05/21 01:10:05;;;;;;;11.73;5.75;;;11.10;92.90;;;;;;5006843;28;20104;-87
2022/05/21 01:12:36;;;;;;;9.43;5.38;;;11.10;92.90;;;;;;4991047;28;20022;-87
2022/05/21 01:15:05;;;;;;;;;;;11.00;92.70;;;;;;4993396;28;20120;-86
2022/05/21 01:17:32;;;;;;;9.02;5.03;;;11.00;92.50;;;;;;5008926;28;19909;-87
2022/05/21 01:20:08;;;;;;;8.13;4.32;;;11.00;92.50;;;;;;4991885;28;20138;-87
2022/05/21 01:22:41;;;;;;;10.13;4.45;;;11.00;92.40;;;;;;4987620;28;20034;-87
2022/05/21 01:25:12;;;;;;;7.68;4.45;;;11.00;92.10;;;;;;4992492;28;20034;-87
2022/05/21 01:27:41;;;;;;;7.00;4.45;;;11.00;92.30;;;;;;4991600;28;20034;-87
2022/05/21 01:30:12;;;;;;;7.85;4.43;;;11.00;92.10;;;;;;5010194;28;20030;-87
2022/05/21 01:32:38;;;;;;;8.65;4.78;;;11.00;92.50;;;;;;5019512;28;20177;-87
2022/05/21 01:35:05;;;;;;;9.02;5.00;;;11.00;92.30;;;;;;5009621;28;20117;-87
2022/05/21 01:37:33;;;;;;;9.85;4.43;;;11.00;92.40;;;;;;4998376;28;20038;-86
2022/05/21 01:39:58;;;;;;;7.18;4.95;;;11.00;92.50;;;;;;4996621;28;20116;-87
2022/05/21 01:42:27;;;;;;;8.77;5.38;;;11.00;92.40;;;;;;4994702;28;20121;-86
2022/05/21 01:44:55;;;;;;;8.70;5.57;;;11.10;92.30;;;;;;5025289;28;20496;-87
2022/05/21 01:47:23;;;;;;;10.18;5.95;;;11.00;92.30;;;;;;5002667;28;20034;-87
2022/05/21 01:49:49;;;;;;;8.23;4.63;;;10.90;92.20;;;;;;5008467;28;20052;-87
2022/05/21 01:52:35;;;;;;;11.40;4.88;;;10.90;92.20;;;;;;5009854;28;20115;-87
2022/05/21 01:55:00;;;;;;;10.13;5.13;;;10.90;92.30;;;;;;4995009;28;20046;-87
2022/05/21 01:57:27;;;;;;;9.18;4.90;;;10.90;92.50;;;;;;4990310;28;20042;-87
2022/05/21 01:59:53;;;;;;;9.18;4.70;;;10.80;92.30;;;;;;4995860;28;20057;-88
2022/05/21 02:02:21;;;;;;;8.30;4.75;;;10.80;92.30;;;;;;4990968;28;20022;-87
2022/05/21 02:04:49;;;;;;;9.00;4.78;;;10.70;92.20;;;;;;5010507;28;20112;-88
2022/05/21 02:07:22;;;;;;;8.25;4.78;;;10.80;92.40;;;;;;5011243;28;20080;-87
2022/05/21 02:09:57;;;;;;;;;;;;;;;;;;;;;
2022/05/21 02:12:24;;;;;;;7.38;4.38;;;10.70;92.60;;;;;;5008558;28;20029;-87
2022/05/21 02:14:54;;;;;;;10.18;4.70;;;10.70;92.60;;;;;;4988461;28;20030;-87
2022/05/21 02:17:21;;;;;;;8.07;4.50;;;10.80;92.50;;;;;;4996059;28;20485;-87
2022/05/21 02:19:54;;;;;;;8.02;4.30;;;10.80;92.30;;;;;;5010356;28;20209;-88
2022/05/21 02:22:19;;;;;;;8.20;4.80;;;10.80;92.10;;;;;;4981517;28;20037;-87
2022/05/21 02:24:47;;;;;;;6.95;4.03;;;10.80;92.00;;;;;;4992150;28;20030;-87
2022/05/21 02:27:15;;;;;;;8.05;4.25;;;10.70;92.00;;;;;;4994767;28;20034;-87
2022/05/21 02:29:43;;;;;;;7.03;4.10;;;10.80;92.00;;;;;;4991481;28;20036;-88
2022/05/21 02:32:12;;;;;;;6.40;4.35;;;10.80;92.10;;;;;;4992381;28;20432;-87
2022/05/21 02:34:48;;;;;;;6.60;4.15;;;10.80;92.30;;;;;;4990569;28;20029;-88
2022/05/21 02:40:00;;;;;;;5.68;3.45;;;10.80;92.30;;;;;;5010553;28;20024;-87
2022/05/21 02:42:45;;;;;;;4.90;3.65;;;10.70;92.30;;;;;;4989782;28;20025;-87
2022/05/21 02:45:20;;;;;;;7.22;4.75;;;10.70;92.30;;;;;;4991426;28;20103;-87
2022/05/21 02:47:47;;;;;;;6.38;4.20;;;10.80;92.40;;;;;;5000606;28;20118;-88
2022/05/21 02:50:14;;;;;;;8.05;5.05;;;10.70;92.20;;;;;;4996368;28;20040;-88
2022/05/21 02:52:40;;;;;;;11.45;5.13;;;10.80;92.30;;;;;;5006889;28;20026;-87
2022/05/21 02:55:08;;;;;;;7.63;4.95;;;10.70;92.50;;;;;;4988611;28;20058;-88
2022/05/21 02:57:34;;;;;;;10.35;5.20;;;10.70;92.50;;;;;;5001825;28;20120;-87
2022/05/21 03:00:01;;;;;;;10.48;6.07;;;10.80;92.50;;;;;;4993269;28;20567;-87
2022/05/21 03:02:27;;;;;;;9.88;6.70;;;10.80;92.60;;;;;;5006486;28;20037;-87
2022/05/21 03:04:53;;;;;;;12.73;7.05;;;10.80;92.60;;;;;;4990605;28;20137;-88
2022/05/21 03:07:19;;;;;;;9.18;7.00;;;10.80;92.50;;;;;;5017586;28;20501;-88
2022/05/21 03:12:39;;;;;;;11.70;7.78;;;10.80;92.70;;;;;;5008261;28;20496;-87
2022/05/21 03:15:06;;;;;;;13.35;7.30;;;10.80;92.50;;;;;;5007184;28;20041;-87
2022/05/21 03:17:32;;;;;;;9.85;7.00;;;10.80;92.60;;;;;;5010402;28;20252;-87
2022/05/21 03:19:59;;;;;;;10.63;7.78;;;10.80;92.60;;;;;;5012182;28;20022;-88
2022/05/21 03:22:25;;;;;;;10.00;6.82;;;10.70;92.70;;;;;;4994552;28;20022;-88
2022/05/21 03:24:50;;;;;;;10.82;7.63;;;10.70;92.80;;;;;;5003530;28;20647;-88
2022/05/21 03:27:16;;;;;;;10.73;6.90;;;10.80;93.00;;;;;;4999288;28;20547;-88
2022/05/21 03:29:44;;;;;;;8.55;6.40;;;10.70;93.00;;;;;;4996372;28;20041;-88
2022/05/21 03:32:09;;;;;;;7.72;6.00;;;10.80;93.00;;;;;;5029372;28;20053;-88
2022/05/21 03:34:36;;;;;;;8.18;5.95;;;10.70;92.90;;;;;;4998406;28;20520;-90
2022/05/21 03:37:04;;;;;;;9.23;6.07;;;10.70;93.10;;;;;;4995973;28;20453;-89
2022/05/21 03:39:30;;;;;;;10.15;6.20;;;10.70;93.10;;;;;;4997393;28;20416;-88
2022/05/21 03:41:56;;;;;;;10.68;6.03;;;10.80;93.30;;;;;;5005185;28;20030;-88
2022/05/21 03:44:27;;;;;;;8.32;5.70;;;10.70;93.10;;;;;;4999441;28;20543;-89
2022/05/21 03:46:56;;;;;;;10.73;5.90;;;10.80;93.30;;;;;;4995397;28;20060;-88
2022/05/21 03:49:23;;;;;;;11.68;6.00;;;10.80;93.00;;;;;;5028755;28;20033;-88
2022/05/21 03:51:51;;;;;;;8.13;6.18;;;10.80;93.20;;;;;;5011535;28;20492;-88
2022/05/21 03:54:19;;;;;;;8.80;5.60;;;10.80;93.10;;;;;;4994249;28;20045;-88
2022/05/21 03:56:45;;;;;;;11.05;7.10;;;10.80;93.10;;;;;;5010515;28;20030;-88
2022/05/21 03:59:11;;;;;;;12.40;6.75;;;10.80;93.00;;;;;;4998863;28;20049;-89
2022/05/21 04:01:38;;;;;;;11.18;7.03;;;10.80;92.90;;;;;;5013882;28;20021;-88
2022/05/21 04:04:04;;;;;;;10.45;6.85;;;10.90;92.90;;;;;;5011799;28;20041;-89
2022/05/21 04:06:29;;;;;;;11.55;6.63;;;10.90;92.80;;;;;;5012993;28;20029;-89
2022/05/21 04:08:55;;;;;;;10.52;7.80;;;10.90;92.80;;;;;;4995977;28;20029;-89
2022/05/21 04:11:20;;;;;;;11.10;7.15;;;11.00;92.90;;;;;;5014013;28;20470;-88
2022/05/21 04:13:46;;;;;;;14.38;7.72;;;11.00;92.80;;;;;;4994961;28;20038;-88
2022/05/21 04:16:11;;;;;;;13.55;7.75;;;10.90;92.70;;;;;;5000825;28;20041;-89
2022/05/21 04:18:37;;;;;;;11.73;7.30;;;11.00;92.80;;;;;;4997051;28;20029;-89
2022/05/21 04:21:03;;;;;;;14.43;7.93;;;11.00;92.70;;;;;;5006619;28;20125;-89
2022/05/21 04:23:28;;;;;;;11.10;7.10;;;11.00;92.70;;;;;;4997816;28;20278;-89
2022/05/21 04:25:56;;;;;;;11.65;8.30;;;11.00;92.60;;;;;;4992782;28;20674;-89
2022/05/21 04:28:29;;;;;;;9.18;6.50;;;11.10;92.70;;;;;;4996378;28;20034;-89
2022/05/21 04:30:55;;;;;;;10.48;7.80;;;11.10;92.40;;;;;;5009518;28;20040;-89
2022/05/21 04:33:20;;;;;;;11.57;7.90;;;11.10;92.60;;;;;;4997017;28;20491;-88
2022/05/21 04:38:35;;;;;;;13.70;8.18;;;11.20;92.60;;;;;;5012056;28;20021;-89
2022/05/21 04:41:04;;;;;;;12.87;8.77;;;11.20;92.50;;;;;;5030231;28;20053;-89
2022/05/21 04:43:33;;;;;;;12.93;8.07;;;11.20;92.40;;;;;;4999513;28;20049;-88
2022/05/21 04:46:01;;;;;;;12.73;8.57;;;11.20;92.40;;;;;;5006063;28;20030;-90
2022/05/21 04:48:42;;;;;;;15.73;9.02;;;11.10;92.30;;;;;;4997987;28;20034;-89
2022/05/21 04:51:08;;;;;;;13.60;9.33;;;11.20;92.40;;;;;;5026788;28;20477;-88
2022/05/21 04:53:36;;;;;;;13.20;9.43;;;11.20;92.50;;;;;;5006063;28;20638;-89
2022/05/21 04:56:05;;;;;;;15.57;10.25;;;11.20;92.40;;;;;;5024862;28;20034;-89
2022/05/21 04:58:33;;;;;;;13.85;9.80;;;11.20;92.40;;;;;;4999293;28;20482;-89
2022/05/21 05:01:03;;;;;;;14.75;10.75;;;11.30;92.50;;;;;;4999147;28;20030;-90
2022/05/21 05:03:32;;;;;;;16.58;11.13;;;11.30;92.50;;;;;;5002220;28;20034;-89
2022/05/21 05:06:00;;;;;;;16.67;9.93;;;11.30;92.50;;;;;;5016960;28;20038;-89
2022/05/21 05:08:26;;;;;;;15.20;11.00;;;11.30;92.30;;;;;;5001274;28;20030;-89
2022/05/21 05:10:52;;;;;;;18.90;11.02;;;11.40;92.60;;;;;;4989917;28;20061;-89
2022/05/21 05:13:20;;;;;;;18.00;11.65;;;11.40;92.60;;;;;;4999682;28;20118;-89
2022/05/21 05:15:46;;;;;;;16.15;11.60;;;11.50;92.80;;;;;;4985153;28;20492;-90
2022/05/21 05:18:17;;;;;;;19.70;11.98;;;11.50;92.60;;;;;;4998872;28;20030;-89
2022/05/21 05:20:46;;;;;;;21.35;11.77;;;11.50;92.50;;;;;;5012814;28;20062;-89
2022/05/21 05:23:14;;;;;;;18.27;12.13;;;11.60;92.60;;;;;;5003908;28;20037;-89
2022/05/21 05:25:40;;;;;;;16.75;11.73;;;11.60;92.70;;;;;;5027759;28;20037;-88
2022/05/21 05:28:19;;;;;;;20.17;13.43;;;11.50;93.20;;;;;;4998106;28;20034;-87
2022/05/21 05:30:46;;;;;;;21.02;14.30;;;11.40;93.80;;;;;;5020107;28;20095;-87
2022/05/21 05:33:14;;;;;;;24.27;14.68;;;11.40;94.10;;;;;;4994587;28;20041;-89
2022/05/21 05:35:41;;;;;;;18.75;13.75;;;11.30;94.60;;;;;;5010065;28;20022;-89
2022/05/21 05:38:11;;;;;;;22.88;15.02;;;11.30;95.00;;;;;;4996982;28;20076;-88
2022/05/21 05:40:40;;;;;;;26.08;16.15;;;11.20;95.20;;;;;;5014009;28;20488;-88
2022/05/21 05:43:09;;;;;;;22.20;15.82;;;11.20;95.40;;;;;;4996422;28;20027;-88
2022/05/21 05:45:35;;;;;;;27.75;17.23;;;11.20;95.70;;;;;;4993800;28;20061;-87
2022/05/21 05:48:01;;;;;;;25.80;17.92;;;11.20;95.80;;;;;;4998735;28;20571;-88
2022/05/21 05:50:26;;;;;;;28.58;17.52;;;11.30;95.90;;;;;;5002794;28;20019;-88
2022/05/21 05:52:54;;;;;;;29.90;19.35;;;11.20;95.90;;;;;;5009138;28;20489;-88
2022/05/21 05:55:22;;;;;;;24.83;15.98;;;11.30;96.10;;;;;;5003583;28;20067;-89
2022/05/21 05:57:54;;;;;;;26.80;19.10;;;11.30;95.80;;;;;;4993734;28;20026;-88
2022/05/21 06:00:21;;;;;;;27.35;19.75;;;11.40;96.10;;;;;;5001644;28;20052;-88
2022/05/21 06:03:01;;;;;;;30.70;19.23;;;11.50;96.10;;;;;;5010848;28;20032;-88
2022/05/21 06:05:29;;;;;;;27.40;18.98;;;11.60;96.20;;;;;;4997715;28;20037;-88
2022/05/21 06:08:00;;;;;;;34.92;20.33;;;11.60;95.90;;;;;;4994881;28;20457;-89
2022/05/21 06:10:26;;;;;;;;;;;11.70;95.90;;;;;;5000314;28;20027;-90
2022/05/21 06:12:51;;;;;;;30.48;20.02;;;11.60;95.70;;;;;;5014197;28;20444;-88
2022/05/21 06:15:17;;;;;;;31.23;18.73;;;11.70;95.80;;;;;;5012168;28;20109;-88
2022/05/21 06:17:45;;;;;;;28.00;19.55;;;11.70;95.70;;;;;;4994968;28;20390;-88
2022/05/21 06:20:16;;;;;;;31.80;20.52;;;11.70;95.70;;;;;;4995809;28;20022;-88
2022/05/21 06:22:44;;;;;;;28.60;19.58;;;11.80;95.60;;;;;;4996448;28;20033;-88
2022/05/21 06:25:11;;;;;;;33.30;21.10;;;11.90;95.60;;;;;;5002457;28;20493;-88
2022/05/21 06:27:39;;;;;;;29.23;20.80;;;12.00;95.60;;;;;;4997911;28;20488;-89
2022/05/21 06:30:05;;;;;;;32.50;19.83;;;12.10;95.20;;;;;;4999827;28;20026;-88
2022/05/21 06:32:31;;;;;;;29.80;20.33;;;12.10;95.10;;;;;;4998174;28;20035;-89
2022/05/21 06:34:57;;;;;;;25.33;17.98;;;12.20;94.90;;;;;;4993391;28;20102;-89
2022/05/21 06:37:22;;;;;;;25.25;18.10;;;12.20;94.70;;;;;;4996527;28;20165;-89
2022/05/21 06:39:48;;;;;;;26.48;18.25;;;12.20;94.70;;;;;;4999081;28;20022;-89
2022/05/21 06:42:14;;;;;;;28.83;19.42;;;12.20;94.40;;;;;;4989487;28;20030;-88
2022/05/21 06:44:41;;;;;;;25.50;17.02;;;12.20;94.50;;;;;;4996839;28;20061;-88
2022/05/21 06:47:09;;;;;;;23.60;18.58;;;12.30;94.50;;;;;;5012091;28;20010;-89
2022/05/21 06:49:35;;;;;;;28.67;19.63;;;12.30;94.40;;;;;;4999361;28;20050;-88
2022/05/21 06:52:00;;;;;;;25.10;17.33;;;12.50;94.30;;;;;;5004005;28;20058;-89
2022/05/21 06:54:27;;;;;;;23.35;16.35;;;12.60;94.00;;;;;;4992836;28;20038;-88
2022/05/21 06:56:53;;;;;;;23.70;16.85;;;12.60;93.50;;;;;;5013833;28;20026;-89
2022/05/21 06:59:19;;;;;;;25.05;16.30;;;12.70;93.40;;;;;;4999451;28;20401;-89
2022/05/21 07:01:44;;;;;;;24.13;16.65;;;12.80;93.10;;;;;;4995689;28;20124;-88
2022/05/21 07:04:13;;;;;;;24.63;16.10;;;12.80;93.00;;;;;;5013254;28;20030;-88
2022/05/21 07:09:23;;;;;;;20.88;16.27;;;12.80;93.40;;;;;;5007419;28;20390;-87
2022/05/21 07:11:51;;;;;;;25.27;15.25;;;12.80;93.30;;;;;;4992290;28;20025;-87
2022/05/21 07:14:17;;;;;;;25.67;16.45;;;12.70;93.40;;;;;;5012839;28;20025;-87
2022/05/21 07:16:43;;;;;;;20.88;15.93;;;12.70;93.40;;;;;;5014246;28;20049;-87
2022/05/21 07:19:08;;;;;;;26.60;17.23;;;12.70;93.70;;;;;;5001583;28;20485;-87
2022/05/21 07:21:34;;;;;;;25.25;16.38;;;12.80;93.70;;;;;;5015578;28;20085;-87
2022/05/21 07:24:00;;;;;;;23.48;16.55;;;12.90;93.50;;;;;;4994172;28;20038;-87
2022/05/21 07:26:25;;;;;;;24.13;15.73;;;12.90;93.40;;;;;;4996136;28;20038;-86
2022/05/21 07:28:51;;;;;;;21.77;14.77;;;12.90;93.20;;;;;;4995989;28;20026;-86
2022/05/21 07:31:17;;;;;;;19.90;14.30;;;13.10;93.10;;;;;;5012949;28;20012;-87
2022/05/21 07:33:43;;;;;;;23.25;14.60;;;13.20;92.20;;;;;;4994238;28;20034;-86
2022/05/21 07:36:09;;;;;;;21.52;13.80;;;13.50;92.00;;;;;;4987883;28;20037;-87
2022/05/21 07:38:38;;;;;;;22.33;14.60;;;13.60;91.10;;;;;;4990576;28;20381;-87
2022/05/21 07:41:04;;;;;;;16.75;13.30;;;13.70;91.30;;;;;;5019362;28;20033;-87
2022/05/21 07:43:30;;;;;;;21.63;13.65;;;13.90;90.50;;;;;;5011028;28;20034;-86
2022/05/21 07:46:00;;;;;;;15.70;11.13;;;13.90;90.10;;;;;;5011372;28;20034;-86
2022/05/21 07:48:27;;;;;;;16.50;10.93;;;13.90;90.10;;;;;;4993803;28;20485;-86
2022/05/21 07:50:56;;;;;;;15.95;9.73;;;13.80;89.60;;;;;;4994401;28;20595;-86
2022/05/21 07:53:25;;;;;;;14.57;10.10;;;13.80;89.00;;;;;;5006410;28;20479;-87
2022/05/21 07:55:52;;;;;;;15.88;10.38;;;13.80;89.60;;;;;;4996558;28;20022;-87
2022/05/21 07:58:19;;;;;;;17.27;9.82;;;13.80;89.80;;;;;;4991796;28;20409;-87
2022/05/21 08:00:45;;;;;;;17.08;9.70;;;14.00;89.50;;;;;;4997589;28;20033;-88
2022/05/21 08:03:11;;;;;;;12.30;8.52;;;14.00;89.40;;;;;;4997717;28;20401;-87
2022/05/21 08:05:38;;;;;;;12.13;8.20;;;14.20;88.60;;;;;;5014127;28;20125;-88
2022/05/21 08:08:04;;;;;;;13.13;7.07;;;14.40;88.30;;;;;;4996898;28;20048;-87
2022/05/21 08:10:30;;;;;;;10.93;7.22;;;14.40;86.60;;;;;;4994301;28;20014;-87
2022/05/21 08:12:57;;;;;;;11.50;7.03;;;14.60;87.20;;;;;;5015479;28;20126;-87
2022/05/21 08:15:22;;;;;;;11.25;6.38;;;14.50;87.30;;;;;;4988962;28;20037;-87
2022/05/21 08:17:48;;;;;;;11.18;6.43;;;14.50;87.30;;;;;;4997088;28;20465;-88
2022/05/21 08:20:15;;;;;;;8.18;5.10;;;14.40;87.80;;;;;;4997687;28;20029;-88
2022/05/21 08:28:14;;;;;;;8.40;3.10;;;14.10;86.30;;;;;;5008338;28;20036;-88
2022/05/21 08:30:45;;;;;;;8.23;2.65;;;14.10;86.60;;;;;;4999051;28;20089;-89
2022/05/21 08:33:11;;;;;;;10.65;3.63;;;14.00;87.40;;;;;;5014040;28;20029;-89
2022/05/21 08:35:40;;;;;;;8.20;2.63;;;14.00;88.30;;;;;;4995424;28;20034;-88
2022/05/21 08:38:06;;;;;;;7.72;3.40;;;13.90;87.10;;;;;;5040079;22;20172;-73
2022/05/21 08:40:52;;;;;;;8.93;2.95;;;13.80;87.70;;;;;;4992707;28;20041;-73
2022/05/21 08:43:21;;;;;;;6.53;2.90;;;13.70;87.90;;;;;;4986403;28;20033;-72
2022/05/21 08:46:15;;;;;;;8.20;3.13;;;13.60;87.60;;;;;;4997504;28;20528;-73
2022/05/21 08:48:49;;;;;;;6.15;2.80;;;13.70;88.20;;;;;;4992579;28;20045;-72
2022/05/21 08:51:19;;;;;;;7.78;2.90;;;13.90;88.20;;;;;;4988252;28;20026;-73
2022/05/21 08:53:49;;;;;;;12.90;3.38;;;14.00;86.50;;;;;;5003849;28;20042;-72
2022/05/21 08:56:15;;;;;;;6.85;2.53;;;14.00;86.40;;;;;;5003119;28;20124;-72
2022/05/21 08:58:55;;;;;;;8.65;2.60;;;14.10;86.50;;;;;;4999231;28;20097;-73
2022/05/21 09:01:25;;;;;;;7.35;2.22;;;14.20;86.10;;;;;;4998089;28;20022;-73
2022/05/21 09:03:53;;;;;;;8.10;2.00;;;14.40;85.00;;;;;;5000779;28;20046;-72
2022/05/21 09:06:18;;;;;;;7.93;2.40;;;14.60;84.50;;;;;;4988876;28;20065;-72
2022/05/21 09:08:51;;;;;;;5.40;1.92;;;14.80;83.90;;;;;;4990583;28;20065;-73
2022/05/21 09:11:29;;;;;;;5.95;2.15;;;14.80;83.60;;;;;;4995274;28;20033;-72
2022/05/21 09:14:26;;;;;;;4.68;1.73;;;14.80;83.20;;;;;;4990406;28;20037;-72
2022/05/21 09:16:57;;;;;;;4.95;1.67;;;14.80;82.50;;;;;;4992186;28;20113;-72
2022/05/21 09:19:33;;;;;;;2.97;1.50;;;15.10;81.30;;;;;;4996361;28;20438;-72
2022/05/21 09:22:13;;;;;;;3.40;1.50;;;15.50;80.30;;;;;;4998597;28;20025;-72
2022/05/21 09:24:51;;;;;;;5.22;1.85;;;15.90;78.90;;;;;;4994651;28;20026;-72
2022/05/21 09:27:36;;;;;;;3.22;1.20;;;16.00;77.90;;;;;;4991895;28;20038;-72
2022/05/21 09:30:25;;;;;;;6.88;1.73;;;16.40;75.80;;;;;;4992708;28;20094;-72
2022/05/21 09:33:00;;;;;;;6.45;1.60;;;16.90;75.90;;;;;;4989548;28;20026;-73
2022/05/21 09:35:34;;;;;;;7.60;1.95;;;16.50;75.10;;;;;;4999876;28;20052;-73
2022/05/21 09:38:19;;;;;;;4.25;1.20;;;16.00;77.50;;;;;;4984678;28;20679;-72
2022/05/21 09:40:44;;;;;;;6.35;1.25;;;15.50;78.10;;;;;;4978378;28;20069;-74
2022/05/21 09:46:17;;;;;;;4.53;1.30;;;15.30;79.40;;;;;;4988431;28;20037;-74
2022/05/21 09:48:46;;;;;;;5.82;1.58;;;15.30;79.80;;;;;;4984936;28;20030;-74
2022/05/21 09:51:32;;;;;;;7.25;1.40;;;15.30;79.20;;;;;;4991361;28;20090;-74
2022/05/21 09:53:59;;;;;;;4.35;1.30;;;15.50;79.30;;;;;;4989516;28;20035;-73
2022/05/21 09:56:28;;;;;;;3.72;1.45;;;16.50;76.00;;;;;;4991888;28;20038;-74
2022/05/21 09:59:25;;;;;;;7.00;1.38;;;16.50;73.60;;;;;;4986386;28;20361;-74
2022/05/21 10:01:53;;;;;;;2.70;1.15;;;16.70;73.30;;;;;;4984511;28;20083;-73
2022/05/21 10:04:53;;;;;;;5.85;1.13;;;16.90;73.80;;;;;;4989600;28;20086;-73
2022/05/21 10:13:12;;;;;;;4.93;1.10;;;16.70;75.30;;;;;;4987238;28;20085;-74
2022/05/21 10:15:43;;;;;;;7.45;1.40;;;16.50;74.70;;;;;;4989607;28;20073;-72
2022/05/21 10:18:31;;;;;;;6.05;1.20;;;16.40;73.00;;;;;;4989889;28;20117;-73
2022/05/21 10:21:03;;;;;;;3.30;1.00;;;16.50;73.10;;;;;;4984993;28;20117;-73
2022/05/21 10:23:40;;;;;;;4.38;1.17;;;16.30;73.90;;;;;;4991149;28;20350;-74
2022/05/21 10:26:46;;;;;;;5.88;1.35;;;16.70;71.90;;;;;;4984377;28;20038;-72
2022/05/21 10:29:36;;;;;;;5.88;1.02;;;17.30;69.80;;;;;;4928705;29;20039;-72
2022/05/21 10:32:23;;;;;;;2.90;1.00;;;17.80;68.60;;;;;;4988967;28;20049;-72
2022/05/21 10:35:17;;;;;;;5.55;1.08;;;18.10;66.90;;;;;;5000025;28;20035;-72
2022/05/21 10:38:02;;;;;;;5.80;0.95;;;18.70;67.70;;;;;;4989949;28;20050;-73
2022/05/21 10:40:38;;;;;;;3.65;0.90;;;18.30;65.00;;;;;;4988327;28;20034;-72
2022/05/21 10:43:08;;;;;;;4.13;1.23;;;17.20;66.50;;;;;;4991214;28;20025;-73
2022/05/21 10:45:45;;;;;;;3.10;0.73;;;17.00;67.40;;;;;;4978617;28;20041;-72
2022/05/21 10:48:37;;;;;;;3.20;0.80;;;17.90;66.10;;;;;;4983669;28;20046;-72
2022/05/21 10:51:20;;;;;;;8.27;1.05;;;17.50;67.30;;;;;;4981809;28;20038;-74
2022/05/21 10:54:09;;;;;;;6.15;1.02;;;17.30;65.20;;;;;;4988816;28;20121;-74
2022/05/21 10:56:49;;;;;;;3.47;1.05;;;17.10;65.40;;;;;;4991071;28;20038;-74
2022/05/21 10:59:38;;;;;;;4.00;1.10;;;16.70;68.20;;;;;;4989591;28;20034;-74
2022/05/21 11:02:28;;;;;;;6.10;1.45;;;16.40;69.70;;;;;;4980457;28;20026;-73
2022/05/21 11:05:25;;;;;;;3.83;0.97;;;16.40;70.00;;;;;;4989500;28;20389;-75
2022/05/21 11:07:51;;;;;;;4.60;0.88;;;16.40;69.50;;;;;;4980694;28;20453;-73
2022/05/21 11:10:38;;;;;;;5.57;1.30;;;16.50;69.00;;;;;;4987814;28;20038;-73
2022/05/21 11:13:07;;;;;;;3.13;0.95;;;17.50;67.90;;;;;;4991180;28;20101;-72
2022/05/21 11:15:47;;;;;;;3.60;1.20;;;18.10;65.70;;;;;;4980919;28;20456;-73
2022/05/21 11:18:21;;;;;;;4.22;1.15;;;18.60;64.10;;;;;;4991868;28;20041;-74
2022/05/21 11:21:07;;;;;;;6.05;1.17;;;19.10;64.40;;;;;;4985895;28;20521;-75
2022/05/21 11:23:58;;;;;;;4.72;1.25;;;17.90;64.80;;;;;;4981315;28;20046;-75
2022/05/21 11:26:28;;;;;;;;;;;17.60;65.90;;;;;;4981377;28;20049;-75
2022/05/21 11:29:16;;;;;;;3.42;0.65;;;17.20;67.50;;;;;;4978668;28;19912;-74
2022/05/21 11:37:30;;;;;;;5.50;1.20;;;16.50;69.00;;;;;;4990397;28;20050;-72
2022/05/21 11:39:57;;;;;;;3.65;1.23;;;16.40;70.50;;;;;;4988821;28;20026;-72
2022/05/21 11:42:34;;;;;;;5.63;1.30;;;16.10;71.30;;;;;;4987670;28;20425;-72
2022/05/21 11:45:23;;;;;;;6.32;1.20;;;16.90;70.70;;;;;;4986147;28;20038;-72
2022/05/21 11:48:09;;;;;;;3.92;0.88;;;17.10;68.50;;;;;;4983645;28;20026;-72
2022/05/21 11:50:34;;;;;;;1.92;1.00;;;17.70;66.20;;;;;;4990169;28;20026;-72
2022/05/21 11:53:08;;;;;;;2.38;0.75;;;18.40;63.20;;;;;;4989390;28;20045;-72
2022/05/21 11:56:05;;;;;;;3.30;0.88;;;17.80;63.40;;;;;;4972722;28;20072;-72
2022/05/21 11:59:08;;;;;;;6.43;1.52;;;17.30;65.20;;;;;;4979822;28;20036;-72
2022/05/21 12:01:38;;;;;;;3.92;1.00;;;17.30;65.40;;;;;;4988175;28;20038;-72
2022/05/21 12:04:22;;;;;;;4.07;1.00;;;17.10;66.80;;;;;;4991956;28;20033;-72
2022/05/21 12:06:48;;;;;;;7.15;1.52;;;17.30;66.20;;;;;;4968916;28;20063;-72
2022/05/21 12:09:29;;;;;;;2.65;0.90;;;18.60;63.60;;;;;;4982178;28;20065;-73
2022/05/21 12:12:30;;;;;;;6.20;1.10;;;18.40;62.40;;;;;;4996451;28;20109;-72
2022/05/21 12:15:16;;;;;;;3.95;1.17;;;18.70;60.20;;;;;;4929132;29;20078;-76
2022/05/21 12:17:44;;;;;;;3.28;1.00;;;18.70;59.20;;;;;;4987678;28;20034;-75
2022/05/21 12:20:12;;;;;;;3.53;1.10;;;19.30;59.20;;;;;;4989762;28;20026;-75
2022/05/21 12:22:42;;;;;;;5.40;1.20;;;19.50;58.00;;;;;;4989865;28;20105;-74
2022/05/21 12:25:13;;;;;;;3.60;1.23;;;19.80;57.60;;;;;;4975578;28;20085;-75
2022/05/21 12:27:56;;;;;;;5.35;0.80;;;19.90;57.40;;;;;;4992531;28;20517;-75
2022/05/21 12:30:29;;;;;;;3.47;0.80;;;20.30;55.40;;;;;;5008056;28;20557;-75
2022/05/21 12:32:56;;;;;;;3.00;0.98;;;20.30;53.90;;;;;;5000501;28;20034;-74
2022/05/21 12:35:23;;;;;;;2.95;1.08;;;20.50;55.10;;;;;;4993637;28;20483;-75
2022/05/21 12:37:55;;;;;;;3.47;1.02;;;21.00;52.80;;;;;;5001428;28;20054;-73
2022/05/21 12:40:29;;;;;;;5.03;0.98;;;20.80;53.00;;;;;;4998175;28;20105;-74
2022/05/21 12:43:15;;;;;;;5.53;1.15;;;20.90;53.90;;;;;;4987201;28;20109;-75
2022/05/21 12:45:50;;;;;;;2.05;0.68;;;20.50;55.60;;;;;;4995590;28;20468;-76
2022/05/21 12:48:31;;;;;;;3.60;0.93;;;20.70;54.10;;;;;;4995226;28;20078;-74
2022/05/21 12:51:00;;;;;;;6.45;0.77;;;20.70;52.90;;;;;;5001329;28;20105;-74
2022/05/21 12:53:38;;;;;;;3.85;0.90;;;20.70;51.20;;;;;;4995004;28;20043;-75
2022/05/21 12:56:05;;;;;;;3.70;0.75;;;20.80;50.90;;;;;;4992930;28;20037;-75
2022/05/21 12:58:31;;;;;;;2.13;0.70;;;20.50;51.70;;;;;;4991319;28;20037;-75
2022/05/21 13:00:59;;;;;;;1.75;0.50;;;20.60;51.40;;;;;;5002026;28;20026;-75
2022/05/21 13:03:31;;;;;;;2.83;0.85;;;20.70;52.20;;;;;;4999140;28;20048;-74
2022/05/21 13:06:26;;;;;;;4.90;1.02;;;20.30;53.60;;;;;;4986918;28;20019;-75
2022/05/21 13:08:52;;;;;;;3.47;1.40;;;19.50;55.80;;;;;;4995899;28;20038;-75
2022/05/21 13:11:31;;;;;;;3.10;0.70;;;18.90;56.80;;;;;;4988172;28;20048;-74
2022/05/21 13:14:08;;;;;;;4.50;0.90;;;19.40;55.80;;;;;;4969984;28;20041;-75
2022/05/21 13:16:34;;;;;;;3.88;0.90;;;19.50;55.60;;;;;;4986873;28;20023;-75
2022/05/21 13:19:18;;;;;;;6.18;1.13;;;20.70;52.90;;;;;;4989413;28;20038;-75
2022/05/21 13:22:22;;;;;;;4.82;1.05;;;21.00;51.60;;;;;;4989755;28;20041;-75
2022/05/21 13:25:11;;;;;;;4.57;0.73;;;21.00;51.40;;;;;;4958979;28;20402;-75
2022/05/21 13:27:54;;;;;;;3.65;0.90;;;20.80;50.70;;;;;;4995463;28;20030;-75
2022/05/21 13:30:34;;;;;;;5.07;1.00;;;20.80;51.50;;;;;;4991976;28;20026;-75
2022/05/21 13:33:03;;;;;;;3.20;0.70;;;21.00;48.80;;;;;;4993191;28;20135;-75
2022/05/21 13:35:34;;;;;;;3.30;0.98;;;21.50;48.20;;;;;;4991159;28;20375;-75
2022/05/21 13:38:04;;;;;;;3.40;0.80;;;22.00;49.00;;;;;;4993092;28;20113;-76